Latest Weather Observations for Middle Percy Island

IDQ60801

Issued at 9:02 am EST Sunday 7 February 2016 (issued every 30 minutes, with the page automatically refreshed every 10 minutes)

About weather observations | Map of weather stations | Latest weather observations for QLD | Other Formats
Station Details ID: 200001 Name: MIDDLE PERCY ISLAND Lat: -21.66 Lon: 150.27 Height: 208.7 m
Data from the previous 72 hours. | See also: Recent months at Middle Percy Island
Date/Time
EST
Temp
°C
App
Temp
°C
Dew
Point
Rel
Hum
%
Delta-T
°C
Wind Press
QNH
hPa
Press
MSL
hPa
Rain
since 9 am
mm
Dir
 
Spd
km/h
Gust
km/h
Spd
kts
Gust
kts
07/09:00am 25.3 25.3 25.3 100 0.0 SE 35 50 19 27 1009.0 1007.7 30.0
07/08:48am 25.3 26.6 25.3 100 0.0 ESE 28 48 15 26 1008.8 1007.5 28.6
07/08:30am 25.4 26.0 25.4 100 0.0 ESE 32 44 17 24 1008.7 1007.4 27.6
07/08:04am 25.4 26.8 25.4 100 0.0 SE 28 46 15 25 1008.4 1007.1 26.4
07/08:00am 25.4 26.4 25.4 100 0.0 ESE 30 43 16 23 1008.3 1007.0 26.0
07/07:30am 25.4 26.4 25.4 100 0.0 SE 30 46 16 25 1007.9 1006.6 23.8
07/07:00am 25.5 26.2 25.5 100 0.0 ESE 32 48 17 26 1008.0 1006.7 23.0
07/06:39am 25.5 27.0 25.5 100 0.0 ESE 28 48 15 26 1007.6 1006.3 22.6
07/06:30am 25.4 27.9 25.4 100 0.0 ESE 22 39 12 21 1007.5 1006.2 22.4
07/06:00am 25.3 24.9 25.3 100 0.0 ESE 37 50 20 27 1007.1 1005.8 21.4
07/05:30am 25.3 26.2 25.3 100 0.0 ESE 30 39 16 21 1007.3 1006.0 17.2
07/05:00am 25.3 25.9 25.3 100 0.0 ESE 32 46 17 25 1006.9 1005.6 10.6
07/04:30am 25.3 25.9 25.3 100 0.0 ESE 32 46 17 25 1006.8 1005.5 10.0
07/04:08am 25.3 26.6 25.3 100 0.0 ESE 28 46 15 25 1006.7 1005.4 9.8
07/04:00am 25.5 28.5 25.5 100 0.0 ESE 20 32 11 17 1006.6 1005.3 9.8
07/03:37am 25.6 27.1 25.6 100 0.0 ESE 28 48 15 26 1006.6 1005.3 9.6
07/03:30am 25.6 26.7 25.6 100 0.0 ESE 30 48 16 26 1006.4 1005.1 9.6
07/03:28am 25.6 27.1 25.6 100 0.0 ESE 28 48 15 26 1006.3 1005.0 9.6
07/03:00am 25.4 29.3 25.4 100 0.0 E 15 28 8 15 1006.7 1005.4 9.2
07/02:30am 25.7 29.4 25.7 100 0.0 SE 17 37 9 20 1006.7 1005.4 7.0
07/02:00am 25.6 27.5 25.6 100 0.0 SE 26 41 14 22 1007.1 1005.8 5.6
07/01:30am 25.6 27.1 25.6 100 0.0 ESE 28 41 15 22 1007.2 1005.9 4.4
07/01:00am 25.5 28.0 25.3 99 0.1 SE 22 43 12 23 1007.5 1006.2 3.8
07/12:30am 25.4 27.8 25.2 99 0.1 SE 22 32 12 17 1007.9 1006.6 3.4
07/12:00am 25.5 27.6 25.3 99 0.1 SE 24 37 13 20 1008.2 1006.9 3.2
 
Date/Time
EST
Temp
°C
App
Temp
°C
Dew
Point
Rel
Hum
%
Delta-T
°C
Wind Press
QNH
hPa
Press
MSL
hPa
Rain
since 9 am
mm
Dir
 
Spd
km/h
Gust
km/h
Spd
kts
Gust
kts
06/11:30pm 25.6 28.1 25.4 99 0.1 SE 22 32 12 17 1008.6 1007.3 3.2
06/11:00pm 25.5 27.6 25.3 99 0.1 ESE 24 33 13 18 1008.7 1007.4 3.2
06/10:30pm 25.6 26.6 25.4 99 0.1 SE 30 43 16 23 1008.9 1007.6 2.2
06/10:00pm 25.6 27.0 25.4 99 0.1 SE 28 39 15 21 1008.9 1007.6 1.2
06/09:30pm 25.8 28.0 25.5 98 0.2 SE 24 33 13 18 1008.7 1007.4 1.2
06/09:00pm 25.8 28.4 25.5 98 0.2 SE 22 32 12 17 1008.6 1007.3 1.2
06/08:30pm 26.0 29.0 25.3 96 0.5 SE 19 26 10 14 1008.2 1006.9 1.2
06/08:00pm 26.1 28.8 25.1 94 0.7 ESE 20 26 11 14 1008.1 1006.8 1.2
06/07:30pm 26.0 28.7 24.8 93 0.8 ESE 19 26 10 14 1007.7 1006.4 1.2
06/07:00pm 26.0 28.7 24.8 93 0.8 ESE 19 26 10 14 1007.1 1005.8 1.2
06/06:30pm 26.1 29.5 24.7 92 1.0 ESE 15 22 8 12 1006.8 1005.5 1.2
06/06:00pm 26.2 28.4 24.2 89 1.4 ESE 20 28 11 15 1006.3 1005.0 1.2
06/05:30pm 26.3 29.0 24.7 91 1.1 ESE 19 24 10 13 1005.8 1004.5 1.2
06/05:00pm 26.7 29.2 24.7 89 1.4 ESE 20 28 11 15 1005.2 1003.9 1.2
06/04:30pm 26.8 29.1 25.0 90 1.3 ESE 22 30 12 16 1005.1 1003.8 1.2
06/04:00pm 26.8 29.4 24.6 88 1.5 ESE 19 30 10 16 1005.4 1004.0 1.2
06/03:30pm 27.3 29.1 24.9 87 1.7 ESE 24 30 13 16 1005.5 1004.1 1.2
06/03:00pm 27.3 29.4 24.7 86 1.8 ESE 22 30 12 16 1005.6 1004.2 1.2
06/02:30pm 27.7 30.9 25.5 88 1.6 ESE 19 26 10 14 1005.8 1004.5 1.2
06/02:00pm 27.3 30.3 25.5 90 1.3 SE 20 28 11 15 1006.0 1004.7 1.2
06/01:30pm 27.9 30.8 25.1 85 2.0 ESE 19 26 10 14 1006.0 1004.7 1.2
06/01:00pm 27.6 30.6 24.0 81 2.5 E 15 28 8 15 1006.1 1004.8 1.2
06/12:30pm 27.8 31.3 24.8 84 2.1 E 15 24 8 13 1006.2 1004.9 1.2
06/12:00pm 27.4 30.6 24.3 83 2.2 ESE 15 24 8 13 1006.4 1005.1 1.2
06/11:30am 25.9 28.4 23.8 88 1.4 NE 17 30 9 16 1006.9 1005.6 1.2
06/11:00am 25.9 29.1 24.9 94 0.7 NE 17 24 9 13 1006.8 1005.5 1.2
06/10:30am 24.9 27.8 24.4 97 0.3 ENE 17 24 9 13 1006.9 1005.6 1.2
06/10:00am 24.7 28.4 24.5 99 0.1 E 13 24 7 13 1007.0 1005.7 1.2
06/09:30am 24.1 26.1 23.9 99 0.1 ESE 20 35 11 19 1006.2 1004.9 1.0
06/09:00am 24.3 27.1 24.3 100 0.0 ESE 17 30 9 16 1005.9 1004.6 116.4
06/08:30am 24.2 27.3 24.2 100 0.0 E 15 22 8 12 1006.5 1005.2 116.4
06/08:00am 23.7 26.9 23.7 100 0.0 E 13 22 7 12 1006.4 1005.1 116.0
06/07:30am 23.6 26.4 23.6 100 0.0 E 15 24 8 13 1006.3 1005.0 115.0
06/07:00am 23.7 25.8 23.7 100 0.0 NE 19 28 10 15 1006.1 1004.8 109.2
06/06:30am 24.0 28.5 24.0 100 0.0 NE 7 13 4 7 1006.6 1005.3 84.8
06/06:00am 24.8 27.9 24.8 100 0.0 ESE 17 33 9 18 1004.9 1003.6 71.0
06/05:41am 24.9 26.0 24.9 100 0.0 ESE 28 57 15 31 1004.0 1002.7 66.8
06/05:39am 24.9 26.7 24.9 100 0.0 ESE 24 57 13 31 1004.0 1002.7 66.2
06/05:30am 24.1 25.3 23.9 99 0.1 ESE 24 48 13 26 1004.4 1003.1 63.4
06/05:09am 24.9 26.0 24.9 100 0.0 ESE 28 48 15 26 1004.4 1003.1 59.4
06/05:00am 24.9 25.6 24.9 100 0.0 ESE 30 46 16 25 1004.1 1002.8 54.6
06/04:30am 24.9 26.4 24.9 100 0.0 ESE 26 43 14 23 1004.3 1003.0 46.0
06/04:02am 24.8 25.7 24.6 99 0.1 ESE 28 48 15 26 1004.6 1003.3 39.8
06/04:00am 24.8 25.3 24.6 99 0.1 ESE 30 48 16 26 1004.5 1003.2 39.4
06/03:30am 24.6 24.0 24.4 99 0.1 ESE 35 52 19 28 1004.0 1002.7 34.2
06/03:11am 24.6 23.7 24.4 99 0.1 ESE 37 56 20 30 1004.0 1002.7 31.8
06/03:00am 24.3 23.2 24.1 99 0.1 ESE 37 52 20 28 1004.0 1002.7 30.4
06/02:30am 24.6 23.3 24.4 99 0.1 ESE 39 54 21 29 1004.1 1002.8 27.2
06/02:00am 24.5 23.9 24.3 99 0.1 ESE 35 52 19 28 1004.2 1002.9 22.8
06/01:30am 24.5 23.8 24.2 98 0.2 SE 35 50 19 27 1004.6 1003.3 18.4
06/01:00am 24.3 21.9 23.8 97 0.3 SE 43 57 23 31 1004.8 1003.5 13.4
06/12:30am 24.5 22.6 24.0 97 0.3 SE 41 59 22 32 1005.1 1003.8 9.4
06/12:00am 24.4 22.5 24.1 98 0.2 SE 41 57 22 31 1005.2 1003.9 8.2
 
Date/Time
EST
Temp
°C
App
Temp
°C
Dew
Point
Rel
Hum
%
Delta-T
°C
Wind Press
QNH
hPa
Press
MSL
hPa
Rain
since 9 am
mm
Dir
 
Spd
km/h
Gust
km/h
Spd
kts
Gust
kts
05/11:55pm 24.4 22.9 24.1 98 0.2 SE 39 57 21 31 1005.1 1003.8 8.0
05/11:30pm 24.6 22.3 24.1 97 0.3 SE 43 57 23 31 1005.9 1004.6 6.4
05/11:23pm 24.8 23.9 24.5 98 0.2 SE 37 56 20 30 1006.0 1004.7 6.2
05/11:00pm 24.8 22.7 24.3 97 0.3 SE 43 56 23 30 1006.2 1004.9 5.0
05/10:30pm 24.5 22.1 23.8 96 0.5 SE 43 56 23 30 1006.4 1005.1 3.2
05/10:00pm 24.7 24.4 24.2 97 0.3 SE 33 54 18 29 1006.7 1005.4 2.0
05/09:36pm 24.6 24.9 24.3 98 0.2 SE 30 52 16 28 1006.9 1005.6 1.8
05/09:30pm 24.7 25.1 24.4 98 0.2 SE 30 46 16 25 1007.0 1005.7 1.6
05/09:07pm 24.8 24.7 24.5 98 0.2 SE 33 52 18 28 1006.9 1005.6 1.4
05/09:00pm 24.9 24.8 24.6 98 0.2 SE 33 48 18 26 1006.8 1005.5 1.4
05/08:30pm 25.1 25.4 24.8 98 0.2 SE 32 44 17 24 1006.6 1005.3 0.8
05/08:00pm 24.9 24.7 24.4 97 0.3 SE 33 48 18 26 1006.3 1005.0 0.2
05/07:30pm 25.1 24.5 24.4 96 0.5 SE 35 48 19 26 1006.1 1004.8 0.0
05/07:00pm 25.5 24.5 24.3 93 0.8 SE 37 52 20 28 1005.4 1004.0 0.0
05/06:54pm 25.4 25.2 24.4 94 0.7 SE 33 52 18 28 1005.2 1003.9 0.0
05/06:30pm 25.6 25.8 24.7 95 0.6 SE 32 44 17 24 1004.9 1003.6 0.0
05/06:00pm 26.1 27.9 24.9 93 0.8 SSE 24 35 13 19 1004.7 1003.4 0.0
05/05:30pm 26.2 27.3 25.0 93 0.8 SSE 28 37 15 20 1004.1 1002.8 0.0
05/05:00pm 26.2 28.0 24.8 92 1.0 SSE 24 37 13 20 1004.0 1002.7 0.0
05/04:30pm 26.7 29.4 24.7 89 1.4 SSE 19 26 10 14 1003.8 1002.5 0.0
05/04:00pm 26.7 28.9 24.9 90 1.3 SSE 22 28 12 15 1003.5 1002.2 0.0
05/03:30pm 26.4 28.9 24.8 91 1.1 S 20 30 11 16 1003.7 1002.4 0.0
05/03:00pm 26.1 28.7 24.9 93 0.8 S 20 24 11 13 1004.1 1002.8 0.0
05/02:30pm 26.4 29.5 24.8 91 1.1 S 17 22 9 12 1004.3 1003.0 0.0
05/02:00pm 27.3 31.0 24.6 85 1.9 SSW 13 17 7 9 1004.6 1003.3 0.0
05/01:30pm 27.1 30.8 24.6 86 1.7 SSW 13 17 7 9 1004.8 1003.5 0.0
05/01:00pm 27.2 30.8 25.0 88 1.6 SSW 15 22 8 12 1005.0 1003.7 0.0
05/12:30pm 27.3 30.8 24.9 87 1.7 SSW 15 20 8 11 1005.2 1003.9 0.0
05/12:00pm 27.9 31.9 25.1 85 2.0 SW 13 19 7 10 1005.4 1004.0 0.0
05/11:30am 28.4 33.1 25.0 82 2.4 WSW 9 19 5 10 1005.4 1004.0 0.0
05/11:00am 28.0 31.6 24.4 81 2.5 WNW 13 19 7 10 1005.5 1004.1 0.0
05/10:30am 26.9 31.7 24.5 87 1.7 WNW 7 15 4 8 1005.8 1004.5 0.0
05/10:00am 27.4 33.2 25.2 88 1.6 W 4 7 2 4 1005.9 1004.6 0.0
05/09:30am 27.0 33.1 25.0 89 1.4 NNE 2 6 1 3 1006.1 1004.8 0.0
05/09:00am 26.1 31.7 24.9 93 0.8 SW 4 6 2 3 1006.3 1005.0 11.4
05/08:30am 26.0 30.8 25.1 95 0.6 SSW 9 13 5 7 1006.1 1004.8 11.4
05/08:00am 26.0 30.8 25.1 95 0.6 SSW 9 11 5 6 1006.0 1004.7 11.4
05/07:30am 25.8 31.1 25.3 97 0.4 S 7 11 4 6 1005.6 1004.2 11.4
05/07:00am 25.2 29.3 24.5 96 0.5 SW 11 15 6 8 1005.4 1004.0 11.4
05/06:30am 25.0 28.6 24.3 96 0.5 SW 13 19 7 10 1004.8 1003.5 11.4
05/06:00am 24.8 29.1 24.3 97 0.3 SW 9 13 5 7 1004.4 1003.1 11.4
05/05:30am 24.7 29.3 24.2 97 0.3 WNW 7 9 4 5 1004.0 1002.7 11.4
05/05:00am 24.7 29.6 24.4 98 0.2 SW 6 9 3 5 1003.8 1002.5 11.4
05/04:30am 24.6 29.3 24.3 98 0.2 SSW 7 9 4 5 1003.2 1001.9 10.8
05/04:00am 24.5 28.8 24.2 98 0.2 SW 9 11 5 6 1002.8 1001.5 10.2
05/03:30am 24.7 30.0 24.4 98 0.2 WSW 4 6 2 3 1002.8 1001.5 9.4
05/03:00am 24.9 29.8 24.6 98 0.2 SW 7 13 4 7 1003.1 1001.8 8.4
05/02:30am 24.9 28.3 24.6 98 0.2 SW 15 20 8 11 1003.4 1002.1 6.8
05/02:00am 24.9 28.5 24.4 97 0.3 WSW 13 19 7 10 1003.9 1002.6 4.8
05/01:30am 25.0 28.3 24.5 97 0.3 WSW 15 24 8 13 1003.9 1002.6 3.0
05/01:00am 24.9 28.4 24.2 96 0.5 WSW 13 20 7 11 1004.5 1003.2 2.2
05/12:30am 25.1 28.3 24.4 96 0.5 WSW 15 30 8 16 1004.8 1003.5 1.8
05/12:00am 25.0 27.9 24.5 97 0.3 WSW 17 30 9 16 1005.1 1003.8 1.8
 
Date/Time
EST
Temp
°C
App
Temp
°C
Dew
Point
Rel
Hum
%
Delta-T
°C
Wind Press
QNH
hPa
Press
MSL
hPa
Rain
since 9 am
mm
Dir
 
Spd
km/h
Gust
km/h
Spd
kts
Gust
kts
04/11:30pm 24.8 28.4 24.3 97 0.3 W 13 24 7 13 1005.7 1004.3 1.8
04/11:00pm 25.0 27.5 23.2 90 1.2 WNW 15 26 8 14 1005.8 1004.5 1.6
04/10:30pm 26.8 29.9 25.4 92 1.0 NNW 19 28 10 15 1006.0 1004.7 1.6
04/10:00pm 26.7 29.4 25.1 91 1.1 N 20 30 11 16 1005.9 1004.6 1.6
04/09:30pm 26.7 28.9 24.9 90 1.3 NNE 22 28 12 15 1005.8 1004.5 1.6
04/09:00pm 26.6 28.9 25.0 91 1.1 NNE 22 30 12 16 1005.4 1004.0 1.6
04/08:30pm 26.5 28.7 24.9 91 1.1 N 22 30 12 16 1005.0 1003.7 1.6
04/08:00pm 26.5 29.0 24.7 90 1.3 NNE 20 30 11 16 1005.0 1003.7 1.6
04/07:30pm 26.4 28.1 24.6 90 1.3 NNE 24 32 13 17 1004.8 1003.5 1.6
04/07:00pm 26.4 28.8 24.6 90 1.3 NNE 20 28 11 15 1004.6 1003.3 1.6
04/06:30pm 26.5 29.2 24.7 90 1.3 NNE 19 30 10 16 1004.4 1003.1 1.6
04/06:00pm 26.6 28.9 24.4 88 1.5 NNE 20 28 11 15 1003.9 1002.6 1.6
04/05:30pm 26.9 28.8 24.4 86 1.7 NNE 22 28 12 15 1003.7 1002.4 1.6
04/05:00pm 27.0 29.2 24.3 85 1.9 NNE 20 26 11 14 1003.5 1002.2 1.6
04/04:30pm 27.7 29.9 24.3 82 2.4 NNE 20 30 11 16 1003.4 1002.1 1.6
04/04:00pm 27.6 30.0 24.6 84 2.1 N 20 30 11 16 1003.3 1002.0 1.6
04/03:30pm 27.9 30.1 24.3 81 2.5 N 20 30 11 16 1003.4 1002.1 1.6
04/03:00pm 28.2 30.9 24.8 82 2.4 NNW 19 24 10 13 1004.0 1002.7 1.6
04/02:30pm 27.9 30.7 24.3 81 2.5 NNW 17 24 9 13 1004.3 1003.0 1.6
04/02:00pm 27.8 31.7 24.8 84 2.1 WNW 13 22 7 12 1004.8 1003.5 1.6
04/01:30pm 27.5 31.8 24.9 86 1.8 WNW 11 17 6 9 1005.0 1003.7 1.6
04/01:00pm 27.2 31.6 25.0 88 1.6 WNW 11 17 6 9 1005.1 1003.8 1.6
04/12:30pm 27.3 31.5 24.7 86 1.8 N 11 20 6 11 1005.5 1004.1 1.6
04/12:00pm 27.1 30.4 25.7 92 1.0 NNE 19 26 10 14 1005.7 1004.3 1.6
04/11:30am 26.3 31.7 25.4 95 0.6 NNE 7 19 4 10 1006.1 1004.8 1.6
04/11:00am 27.8 31.4 25.0 85 2.0 NNE 15 20 8 11 1006.4 1005.1 0.0
04/10:30am 27.6 30.8 24.4 83 2.2 N 15 22 8 12 1006.8 1005.5 0.0
04/10:00am 28.5 32.3 25.3 83 2.3 NNE 15 24 8 13 1006.6 1005.3 0.0
04/09:30am 27.6 31.8 25.4 88 1.6 NNE 13 20 7 11 1006.3 1005.0 0.0

Other Formats:

Comma delimited format used in spreadsheet applications
http://www.bom.gov.au/fwo/IDQ60801/IDQ60801.94372.axf

JavaScript Object Notation format (JSON) in row-major order
http://www.bom.gov.au/fwo/IDQ60801/IDQ60801.94372.json